createdAt,value
2017-08-13T00:01:47.536Z,25.4
2017-08-13T00:06:53.610Z,25.4
2017-08-13T00:11:59.013Z,25.4
2017-08-13T00:17:04.084Z,25.3
2017-08-13T00:22:09.821Z,25.3
2017-08-13T00:27:15.226Z,25.3
2017-08-13T00:32:20.965Z,25.3
2017-08-13T00:37:27.039Z,25.3
2017-08-13T00:42:32.779Z,25.3
2017-08-13T00:47:37.850Z,25.3
2017-08-13T00:52:43.601Z,25.3
2017-08-13T00:57:49.341Z,25.3
2017-08-13T01:02:55.415Z,25.3
2017-08-13T01:08:00.819Z,25.3
2017-08-13T01:13:06.553Z,25.3
2017-08-13T01:18:12.625Z,25.3
2017-08-13T01:23:18.698Z,25.3
2017-08-13T01:28:24.433Z,25.3
2017-08-13T01:33:30.506Z,25.3
2017-08-13T01:38:35.910Z,25.3
2017-08-13T01:43:41.650Z,25.3
2017-08-13T01:48:46.720Z,25.3
2017-08-13T01:53:52.793Z,25.2
2017-08-13T01:58:58.193Z,25.2
2017-08-13T02:04:03.929Z,25.2
2017-08-13T02:09:09.332Z,25.2
2017-08-13T02:14:14.732Z,25.2
2017-08-13T02:19:20.470Z,25.2
2017-08-13T02:24:25.869Z,25.2
2017-08-13T02:29:31.281Z,25.2
2017-08-13T02:34:37.352Z,25.2
2017-08-13T02:39:43.090Z,25.2
2017-08-13T02:44:48.494Z,25.2
2017-08-13T02:49:54.227Z,25.2
2017-08-13T02:54:59.628Z,25.2
2017-08-13T03:00:05.701Z,25.2
2017-08-13T03:05:11.104Z,25.2
2017-08-13T03:10:16.510Z,25.2
2017-08-13T03:15:21.912Z,25.2
2017-08-13T03:20:27.982Z,25.2
2017-08-13T03:25:33.720Z,25.2
2017-08-13T03:30:39.457Z,25.2
2017-08-13T03:35:44.188Z,25.2
2017-08-13T03:40:49.932Z,25.2
2017-08-13T03:45:56.003Z,25.2
2017-08-13T03:51:01.408Z,25.2
2017-08-13T03:56:07.144Z,25.2
2017-08-13T04:01:12.881Z,25.2
2017-08-13T04:06:18.619Z,25.2
2017-08-13T04:11:23.688Z,25.2
2017-08-13T04:16:29.091Z,25.2
2017-08-13T04:21:34.157Z,25.2
2017-08-13T04:26:39.562Z,25.2
2017-08-13T04:31:44.632Z,25.2
2017-08-13T04:36:49.704Z,25.2
2017-08-13T04:41:55.110Z,25.2
2017-08-13T04:47:01.185Z,25.2
2017-08-13T04:52:06.590Z,25.2
2017-08-13T04:57:12.328Z,25.2
2017-08-13T05:02:18.073Z,25.2
2017-08-13T05:07:23.146Z,25.2
2017-08-13T05:12:29.223Z,25.3
2017-08-13T05:17:34.964Z,25.3
2017-08-13T05:22:40.368Z,25.3
2017-08-13T05:27:45.435Z,25.3
2017-08-13T05:32:51.508Z,25.3
2017-08-13T05:37:57.582Z,25.3
2017-08-13T05:43:03.324Z,25.3
2017-08-13T05:48:09.069Z,25.4
2017-08-13T05:53:14.143Z,25.4
2017-08-13T05:58:20.218Z,25.4
2017-08-13T06:03:25.622Z,25.4
2017-08-13T06:08:31.365Z,25.5
2017-08-13T06:13:37.114Z,25.5
2017-08-13T06:18:42.522Z,25.5
2017-08-13T06:23:48.595Z,25.6
2017-08-13T06:28:54.339Z,25.6
2017-08-13T06:34:00.080Z,25.6
2017-08-13T06:39:06.158Z,25.6
2017-08-13T06:44:11.561Z,25.6
2017-08-13T06:49:17.637Z,25.6
2017-08-13T06:54:23.716Z,25.7
2017-08-13T06:59:29.796Z,25.7
2017-08-13T07:04:35.541Z,25.8
2017-08-13T07:09:40.616Z,25.8
2017-08-13T07:14:46.023Z,25.9
2017-08-13T07:19:51.943Z,25.9
2017-08-13T07:24:58.527Z,26
2017-08-13T07:30:04.757Z,26
2017-08-13T07:35:09.901Z,26.1
2017-08-13T07:40:16.241Z,26.2
2017-08-13T07:45:22.156Z,26.3
2017-08-13T07:50:28.533Z,26.4
2017-08-13T07:55:34.137Z,26.6
2017-08-13T08:00:39.428Z,26.8
2017-08-13T08:05:45.032Z,26.9
2017-08-13T08:10:50.326Z,27.1
2017-08-13T08:15:56.096Z,27.3
2017-08-13T08:21:01.867Z,27.3
2017-08-13T08:26:07.961Z,27.1
2017-08-13T08:31:13.709Z,27.3
2017-08-13T08:36:19.471Z,27.2
2017-08-13T08:41:24.880Z,27.3
2017-08-13T08:46:30.293Z,27.2
2017-08-13T08:51:35.720Z,27.1
2017-08-13T08:56:41.465Z,26.9
2017-08-13T09:01:47.214Z,26.8
2017-08-13T09:06:52.625Z,26.6
2017-08-13T09:11:58.373Z,26.6
2017-08-13T09:17:03.784Z,26.5
2017-08-13T09:22:09.192Z,26.4
2017-08-13T09:27:14.604Z,26.3
2017-08-13T09:32:20.015Z,26.3
2017-08-13T09:37:25.103Z,26.2
2017-08-13T09:42:30.510Z,26.2
2017-08-13T09:47:35.589Z,26.1
2017-08-13T09:52:41.000Z,26.3
2017-08-13T09:57:45.444Z,26.6
2017-08-13T10:02:50.534Z,26.5
2017-08-13T10:07:56.277Z,26.7
2017-08-13T10:13:01.356Z,27
2017-08-13T10:18:07.114Z,27.2
2017-08-13T10:23:12.858Z,27.2
2017-08-13T10:28:18.607Z,27.1
2017-08-13T10:33:24.030Z,26.9
2017-08-13T10:38:29.115Z,26.8
2017-08-13T10:43:34.538Z,26.8
2017-08-13T10:48:39.961Z,26.8
2017-08-13T10:53:44.702Z,26.7
2017-08-13T10:58:50.115Z,26.7
2017-08-13T11:03:55.195Z,26.7
2017-08-13T11:09:00.612Z,26.6
2017-08-13T11:14:06.364Z,26.6
2017-08-13T11:19:11.776Z,26.6
2017-08-13T11:24:16.623Z,26.6
2017-08-13T11:29:22.704Z,26.6
2017-08-13T11:34:27.780Z,26.6
2017-08-13T11:39:33.191Z,26.6
2017-08-13T11:44:38.945Z,26.6
2017-08-13T11:49:45.016Z,26.6
2017-08-13T11:54:50.763Z,26.6
2017-08-13T11:59:56.843Z,26.6
2017-08-13T12:05:02.924Z,26.6
2017-08-13T12:10:08.670Z,26.6
2017-08-13T12:15:14.428Z,26.6
2017-08-13T12:20:20.506Z,26.6
2017-08-13T12:25:25.922Z,26.6
2017-08-13T12:30:31.668Z,26.6
2017-08-13T12:35:37.413Z,26.5
2017-08-13T12:40:43.157Z,26.5
2017-08-13T12:45:48.237Z,26.5
2017-08-13T12:50:53.643Z,26.5
2017-08-13T12:55:59.387Z,26.5
2017-08-13T13:01:05.468Z,26.5
2017-08-13T13:06:10.546Z,26.5
2017-08-13T13:11:16.292Z,26.5
2017-08-13T13:16:21.704Z,26.5
2017-08-13T13:21:27.116Z,26.5
2017-08-13T13:26:32.525Z,26.5
2017-08-13T13:31:37.938Z,26.5
2017-08-13T13:36:42.688Z,26.5
2017-08-13T13:41:48.431Z,26.5
2017-08-13T13:46:54.510Z,26.6
2017-08-13T13:51:59.921Z,26.5
2017-08-13T13:57:05.664Z,26.6
2017-08-13T14:02:10.744Z,26.5
2017-08-13T14:07:16.153Z,26.5
2017-08-13T14:12:22.231Z,26.6
2017-08-13T14:17:28.311Z,26.5
2017-08-13T14:22:33.386Z,26.5
2017-08-13T14:27:39.135Z,26.5
2017-08-13T14:32:44.883Z,26.5
2017-08-13T14:37:50.624Z,26.5
2017-08-13T14:42:55.702Z,26.5
2017-08-13T14:48:01.545Z,26.5
2017-08-13T14:53:07.296Z,26.5
2017-08-13T14:58:12.708Z,26.5
2017-08-13T15:03:17.781Z,26.5
2017-08-13T15:08:23.525Z,26.5
2017-08-13T15:13:29.271Z,26.5
2017-08-13T15:18:34.685Z,26.5
2017-08-13T15:23:40.434Z,26.5
2017-08-13T15:28:46.172Z,26.5
2017-08-13T15:33:51.915Z,26.5
2017-08-13T15:38:57.328Z,26.5
2017-08-13T15:44:03.074Z,26.5
2017-08-13T15:49:08.152Z,26.5
2017-08-13T15:54:13.560Z,26.5
2017-08-13T15:59:19.303Z,26.5
2017-08-13T16:04:24.380Z,26.5
2017-08-13T16:09:30.126Z,26.5
2017-08-13T16:14:35.537Z,26.5
2017-08-13T16:19:41.799Z,26.5
2017-08-13T16:24:47.229Z,26.5
2017-08-13T16:29:53.518Z,26.5
2017-08-13T16:34:59.628Z,26.5
2017-08-13T16:40:05.819Z,26.5
2017-08-13T16:45:11.937Z,26.5
2017-08-13T16:50:17.023Z,26.5
2017-08-13T16:55:22.764Z,26.4
2017-08-13T17:00:28.182Z,26.4
2017-08-13T17:05:33.605Z,26.4
2017-08-13T17:10:39.693Z,26.4
2017-08-13T17:15:45.437Z,26.4
2017-08-13T17:20:50.218Z,26.4
2017-08-13T17:25:55.618Z,26.3
2017-08-13T17:31:01.897Z,26.3
2017-08-13T17:36:07.699Z,26.3
2017-08-13T17:41:13.452Z,26.3
2017-08-13T17:46:18.869Z,26.2
2017-08-13T17:51:23.972Z,26.2
2017-08-13T17:56:29.124Z,26.2
2017-08-13T18:01:35.414Z,26.2
2017-08-13T18:06:40.837Z,26.2
2017-08-13T18:11:46.020Z,26.2
2017-08-13T18:16:51.763Z,26.2
2017-08-13T18:21:57.183Z,26.2
2017-08-13T18:27:02.602Z,26.1
2017-08-13T18:32:07.339Z,26.1
2017-08-13T18:37:12.745Z,26.1
2017-08-13T18:42:18.822Z,26.1
2017-08-13T18:47:24.242Z,26.1
2017-08-13T18:52:29.988Z,26
2017-08-13T18:57:34.725Z,26
2017-08-13T19:02:40.466Z,26
2017-08-13T19:07:45.543Z,25.8
2017-08-13T19:12:51.285Z,25.8
2017-08-13T19:17:57.041Z,25.7
2017-08-13T19:23:02.126Z,25.7
2017-08-13T19:28:07.900Z,25.7
2017-08-13T19:33:13.320Z,25.8
2017-08-13T19:38:18.754Z,25.8
2017-08-13T19:43:24.514Z,25.8
2017-08-13T19:48:30.269Z,25.8
2017-08-13T19:53:36.354Z,25.8
2017-08-13T19:58:42.432Z,25.8
2017-08-13T20:03:48.175Z,25.8
2017-08-13T20:08:53.919Z,25.8
2017-08-13T20:13:59.669Z,25.8
2017-08-13T20:19:05.416Z,25.8
2017-08-13T20:24:10.849Z,25.8
2017-08-13T20:29:16.240Z,25.8
2017-08-13T20:34:21.984Z,25.8
2017-08-13T20:39:27.732Z,25.7
2017-08-13T20:44:33.486Z,25.7
2017-08-13T20:49:39.231Z,25.7
2017-08-13T20:54:44.309Z,25.7
2017-08-13T20:59:50.057Z,25.7
2017-08-13T21:04:55.473Z,25.7
2017-08-13T21:10:01.215Z,25.7
2017-08-13T21:15:06.628Z,25.7
2017-08-13T21:20:12.712Z,25.7
2017-08-13T21:25:18.799Z,25.7
2017-08-13T21:30:24.203Z,25.7
2017-08-13T21:35:29.620Z,25.7
2017-08-13T21:40:35.373Z,25.6
2017-08-13T21:45:41.147Z,25.6
2017-08-13T21:50:46.571Z,25.6
2017-08-13T21:55:52.335Z,25.6
2017-08-13T22:00:58.081Z,25.6
2017-08-13T22:06:03.834Z,25.6
2017-08-13T22:11:09.584Z,25.6
2017-08-13T22:16:15.325Z,25.6
2017-08-13T22:21:21.072Z,25.6
2017-08-13T22:26:26.476Z,25.6
2017-08-13T22:31:32.552Z,25.6
2017-08-13T22:36:37.283Z,25.6
2017-08-13T22:41:42.353Z,25.6
2017-08-13T22:46:48.424Z,25.6
2017-08-13T22:51:54.159Z,25.6
2017-08-13T22:56:59.852Z,25.6
2017-08-13T23:02:05.253Z,25.6
2017-08-13T23:07:10.659Z,25.6
2017-08-13T23:12:15.727Z,25.6
2017-08-13T23:17:21.463Z,25.6
2017-08-13T23:22:26.532Z,25.5
2017-08-13T23:27:32.270Z,25.6
2017-08-13T23:32:38.340Z,25.5
2017-08-13T23:37:43.743Z,25.5
2017-08-13T23:42:49.484Z,25.5
2017-08-13T23:47:54.554Z,25.5
2017-08-13T23:52:59.955Z,25.5
2017-08-13T23:58:05.701Z,25.5
